Time;durP1;ratioP1;P1;durP2;ratioP2;P2;SDS_P1;SDS_P2;PMS_P1;PMS_P2;Temp;Humidity;BMP_temperature;BMP_pressure;BME280_temperature;BME280_humidity;BME280_pressure;Samples;Min_cycle;Max_cycle;Signal;HPM_P1;HPM_P2
2023/09/22 00:00:04;;;;;;;42.97;20.23;;;;;;;-145.18;100.00;46631.09;5012400;28;20038;-65
2023/09/22 00:02:30;;;;;;;39.93;18.07;;;;;;;-145.18;100.00;46633.06;5012556;28;20062;-65
2023/09/22 00:04:55;;;;;;;41.10;18.70;;;;;;;-145.18;100.00;46633.06;5011890;28;20394;-65
2023/09/22 00:07:21;;;;;;;39.67;18.07;;;;;;;-145.18;100.00;46631.09;5012396;28;20030;-65
2023/09/22 00:09:46;;;;;;;36.87;17.53;;;;;;;-145.18;100.00;46636.94;5012108;28;20497;-65
2023/09/22 00:12:11;;;;;;;35.53;15.33;;;;;;;-145.18;100.00;46636.94;5012521;28;20061;-65
2023/09/22 00:14:37;;;;;;;39.77;18.10;;;;;;;-145.18;100.00;46631.09;5012268;28;20461;-65
2023/09/22 00:17:03;;;;;;;34.33;16.17;;;;;;;-145.18;100.00;46629.13;5012738;28;20375;-65
2023/09/22 00:19:28;;;;;;;38.77;17.50;;;;;;;-145.18;100.00;46633.06;5011911;28;20445;-65
2023/09/22 00:21:55;;;;;;;38.87;17.70;;;;;;;-145.18;100.00;46627.19;5010831;28;20065;-65
2023/09/22 00:24:21;;;;;;;36.20;17.10;;;;;;;-145.18;100.00;46633.06;5006158;28;20088;-65
2023/09/22 00:26:47;;;;;;;37.87;17.37;;;;;;;-145.18;100.00;46633.06;5004048;28;20468;-65
2023/09/22 00:29:12;;;;;;;33.83;16.20;;;;;;;-145.18;100.00;46631.09;5012062;28;20041;-65
2023/09/22 00:31:38;;;;;;;30.60;15.73;;;;;;;-145.18;100.00;46633.06;5012113;28;20037;-65
2023/09/22 00:34:03;;;;;;;32.10;15.13;;;;;;;-145.18;100.00;46629.13;5011392;28;20457;-65
2023/09/22 00:36:28;;;;;;;34.40;17.27;;;;;;;-145.18;100.00;46629.13;5010948;28;20034;-65
2023/09/22 00:38:54;;;;;;;33.10;16.27;;;;;;;-145.18;100.00;46633.06;5011276;28;20025;-65
2023/09/22 00:41:21;;;;;;;33.87;16.47;;;;;;;-145.18;100.00;46633.06;5012204;28;20486;-65
2023/09/22 00:43:46;;;;;;;31.87;15.87;;;;;;;-145.18;100.00;46633.06;5011317;28;20080;-65
2023/09/22 00:46:12;;;;;;;31.37;16.90;;;;;;;-145.18;100.00;46631.09;5011544;28;20045;-65
2023/09/22 00:48:40;;;;;;;31.33;15.47;;;;;;;-145.18;100.00;46633.06;5012151;28;20037;-65
2023/09/22 00:51:06;;;;;;;29.30;15.13;;;;;;;-145.18;100.00;46633.06;5011365;28;20038;-65
2023/09/22 00:53:34;;;;;;;29.57;14.73;;;;;;;-145.18;100.00;46631.09;5010694;28;20076;-65
2023/09/22 00:56:02;;;;;;;30.23;14.67;;;;;;;-145.18;100.00;46631.09;5010616;28;20041;-65
2023/09/22 00:58:28;;;;;;;29.93;14.27;;;;;;;-145.18;100.00;46629.13;5009097;28;20029;-65
2023/09/22 01:00:54;;;;;;;24.83;13.60;;;;;;;-145.18;100.00;46633.06;5008331;28;20026;-65
2023/09/22 01:03:20;;;;;;;27.33;14.30;;;;;;;-145.18;100.00;46631.09;5007784;28;20038;-65
2023/09/22 01:05:46;;;;;;;26.77;14.37;;;;;;;-145.18;100.00;46633.06;5010860;28;20516;-65
2023/09/22 01:08:12;;;;;;;26.30;14.13;;;;;;;-145.18;100.00;46631.09;5011255;28;20100;-65
2023/09/22 01:10:44;;;;;;;25.90;12.83;;;;;;;-145.18;100.00;46629.13;5011359;28;20034;-65
2023/09/22 01:13:10;;;;;;;26.77;14.53;;;;;;;-145.18;100.00;46631.09;5006014;28;20029;-65
2023/09/22 01:15:40;;;;;;;27.90;13.60;;;;;;;-145.18;100.00;46629.13;5011916;28;20466;-65
2023/09/22 01:18:07;;;;;;;23.00;12.43;;;;;;;-145.18;100.00;46627.19;5011813;28;20041;-65
2023/09/22 01:20:39;;;;;;;26.43;12.70;;;;;;;-145.18;100.00;46631.09;5010944;28;20053;-65
2023/09/22 01:23:04;;;;;;;23.47;12.73;;;;;;;-145.18;100.00;46627.19;5008846;28;20030;-65
2023/09/22 01:25:29;;;;;;;24.33;12.00;;;;;;;-145.18;100.00;46633.06;5010971;28;20540;-66
2023/09/22 01:27:55;;;;;;;26.27;11.57;;;;;;;-145.18;100.00;46631.09;5011192;28;20793;-65
2023/09/22 01:30:20;;;;;;;21.67;11.07;;;;;;;-145.18;100.00;46627.19;5011810;28;20038;-65
2023/09/22 01:32:45;;;;;;;22.97;11.67;;;;;;;-145.18;100.00;46627.19;5009257;28;20390;-65
2023/09/22 01:35:11;;;;;;;23.77;11.30;;;;;;;-145.18;100.00;46629.13;5011659;28;20037;-65
2023/09/22 01:37:44;;;;;;;24.27;10.87;;;;;;;-145.18;100.00;46629.13;5011314;28;20056;-65
2023/09/22 01:40:10;;;;;;;28.53;12.07;;;;;;;-145.18;100.00;46627.19;5011659;28;20037;-65
2023/09/22 01:42:35;;;;;;;24.93;11.60;;;;;;;-145.18;100.00;46631.09;5001841;28;20030;-65
2023/09/22 01:45:02;;;;;;;21.17;10.90;;;;;;;-145.18;100.00;46631.09;5001044;28;20045;-65
2023/09/22 01:47:27;;;;;;;22.30;10.37;;;;;;;-145.18;100.00;46631.09;5011155;28;20033;-65
2023/09/22 01:49:53;;;;;;;24.70;10.77;;;;;;;-145.18;100.00;46631.09;5012090;28;20037;-65
2023/09/22 01:52:18;;;;;;;25.83;10.50;;;;;;;-145.18;100.00;46633.06;5013969;28;20029;-65
2023/09/22 01:54:44;;;;;;;24.67;10.90;;;;;;;-145.18;100.00;46631.09;5014987;28;20168;-65
2023/09/22 01:57:09;;;;;;;22.07;11.13;;;;;;;-145.18;100.00;46631.09;5014522;28;20425;-65
2023/09/22 01:59:34;;;;;;;23.40;11.23;;;;;;;-145.18;100.00;46629.13;5015198;28;20090;-65
2023/09/22 02:02:00;;;;;;;21.67;10.30;;;;;;;-145.18;100.00;46627.19;5005575;28;20042;-65
2023/09/22 02:04:27;;;;;;;24.63;11.10;;;;;;;-145.18;100.00;46627.19;5014539;28;20037;-65
2023/09/22 02:06:52;;;;;;;25.23;10.87;;;;;;;-145.18;100.00;46636.94;5014551;28;20496;-65
2023/09/22 02:09:17;;;;;;;24.60;11.03;;;;;;;-145.18;100.00;46631.09;5013575;28;20148;-65
2023/09/22 02:11:43;;;;;;;20.83;10.43;;;;;;;-145.18;100.00;46635.00;5013674;28;20026;-65
2023/09/22 02:14:09;;;;;;;23.47;10.77;;;;;;;-145.18;100.00;46633.06;5014514;28;20374;-65
2023/09/22 02:16:34;;;;;;;23.43;10.63;;;;;;;-145.18;100.00;46635.00;5014804;28;20030;-65
2023/09/22 02:18:59;;;;;;;25.97;10.77;;;;;;;-145.18;100.00;46635.00;5014539;28;20061;-65
2023/09/22 02:21:27;;;;;;;18.73;9.67;;;;;;;-145.18;100.00;46635.00;5012881;28;20112;-65
2023/09/22 02:23:53;;;;;;;25.30;10.23;;;;;;;-145.18;100.00;46631.09;5014172;28;20537;-65
2023/09/22 02:26:18;;;;;;;19.97;9.10;;;;;;;-145.18;100.00;46635.00;5012751;28;20054;-65
2023/09/22 02:28:45;;;;;;;18.00;8.97;;;;;;;-145.18;100.00;46633.06;5012951;28;20052;-65
2023/09/22 02:31:10;;;;;;;18.33;9.27;;;;;;;-145.18;100.00;46636.94;5005559;28;20041;-65
2023/09/22 02:33:36;;;;;;;22.27;8.73;;;;;;;-145.18;100.00;46635.00;5005587;28;20026;-65
2023/09/22 02:36:04;;;;;;;19.10;8.23;;;;;;;-145.18;100.00;46635.00;5014242;28;20034;-65
2023/09/22 02:38:30;;;;;;;24.80;8.93;;;;;;;-145.18;100.00;46635.00;5010043;28;20034;-65
2023/09/22 02:40:55;;;;;;;19.20;8.83;;;;;;;-145.18;100.00;46635.00;5014278;28;20030;-65
2023/09/22 02:43:21;;;;;;;23.77;8.87;;;;;;;-145.18;100.00;46631.09;5013930;28;20398;-65
2023/09/22 02:45:46;;;;;;;24.60;9.87;;;;;;;-145.18;100.00;46631.09;5014252;28;20037;-65
2023/09/22 02:48:11;;;;;;;24.77;8.83;;;;;;;-145.18;100.00;46631.09;5011683;28;20474;-65
2023/09/22 02:50:37;;;;;;;22.97;9.03;;;;;;;-145.18;100.00;46631.09;5010073;28;20046;-65
2023/09/22 02:53:04;;;;;;;22.37;10.00;;;;;;;-145.18;100.00;46633.06;5008585;28;20038;-65
2023/09/22 02:55:30;;;;;;;23.83;8.50;;;;;;;-145.18;100.00;46635.00;5014252;28;20084;-65
2023/09/22 02:57:55;;;;;;;20.43;9.17;;;;;;;-145.18;100.00;46631.09;5013931;28;20106;-65
2023/09/22 03:00:21;;;;;;;20.10;8.37;;;;;;;-145.18;100.00;46631.09;5012254;28;20504;-65
2023/09/22 03:02:47;;;;;;;22.13;9.37;;;;;;;-145.18;100.00;46633.06;5009299;28;20018;-65
2023/09/22 03:05:16;;;;;;;20.33;8.53;;;;;;;-145.18;100.00;46625.22;5009053;28;20452;-65
2023/09/22 03:07:42;;;;;;;16.10;7.03;;;;;;;-145.18;100.00;46627.19;5008776;28;20060;-65
2023/09/22 03:10:10;;;;;;;22.57;8.80;;;;;;;-145.18;100.00;46625.22;5011849;28;20034;-65
2023/09/22 03:12:37;;;;;;;20.03;9.10;;;;;;;-145.18;100.00;46627.19;5011416;28;20095;-65
2023/09/22 03:15:04;;;;;;;17.83;8.27;;;;;;;-145.18;100.00;46623.28;5013791;28;20026;-65
2023/09/22 03:17:29;;;;;;;23.33;8.17;;;;;;;-145.18;100.00;46627.19;5005949;28;20026;-65
2023/09/22 03:19:57;;;;;;;19.37;8.30;;;;;;;-145.18;100.00;46627.19;5013621;28;20402;-65
2023/09/22 03:22:23;;;;;;;22.37;8.03;;;;;;;-145.18;100.00;46625.22;5003112;28;20029;-65
2023/09/22 03:24:49;;;;;;;19.37;8.10;;;;;;;-145.18;100.00;46623.28;5004372;28;20045;-65
2023/09/22 03:27:14;;;;;;;19.30;7.50;;;;;;;-145.18;100.00;46627.19;5012949;28;20501;-65
2023/09/22 03:29:40;;;;;;;18.47;7.67;;;;;;;-145.18;100.00;46623.28;5002697;28;20058;-65
2023/09/22 03:32:06;;;;;;;15.97;7.90;;;;;;;-145.18;100.00;46631.09;5004437;28;20498;-65
2023/09/22 03:34:31;;;;;;;18.80;6.90;;;;;;;-145.18;100.00;46627.19;5008451;28;20037;-65
2023/09/22 03:36:59;;;;;;;20.03;7.60;;;;;;;-145.18;100.00;46625.22;5012635;28;20037;-65
2023/09/22 03:39:26;;;;;;;19.77;8.00;;;;;;;-145.18;100.00;46625.22;5010059;28;20034;-65
2023/09/22 03:41:54;;;;;;;16.90;7.03;;;;;;;-145.18;100.00;46627.19;5009839;28;20033;-65
2023/09/22 03:44:22;;;;;;;17.77;7.87;;;;;;;-145.18;100.00;46629.13;5007385;28;20112;-65
2023/09/22 03:46:47;;;;;;;16.43;7.40;;;;;;;-145.18;100.00;46631.09;5008266;28;20041;-65
2023/09/22 03:49:12;;;;;;;17.03;7.07;;;;;;;-145.18;100.00;46629.13;4994823;28;20076;-65
2023/09/22 03:51:38;;;;;;;19.97;8.37;;;;;;;-145.18;100.00;46633.06;5002490;28;20470;-65
2023/09/22 03:54:04;;;;;;;18.00;8.00;;;;;;;-145.18;100.00;46629.13;5011540;28;20030;-65
2023/09/22 03:56:31;;;;;;;16.30;6.97;;;;;;;-145.18;100.00;46631.09;5012788;28;20068;-65
2023/09/22 03:58:57;;;;;;;16.40;6.80;;;;;;;-145.18;100.00;46625.22;5000105;28;20087;-66
2023/09/22 04:01:22;;;;;;;15.07;6.87;;;;;;;-145.18;100.00;46629.13;5011456;28;20042;-65
2023/09/22 04:03:47;;;;;;;20.63;7.13;;;;;;;-145.18;100.00;46631.09;5011033;28;20034;-65
2023/09/22 04:06:13;;;;;;;15.10;6.73;;;;;;;-145.18;100.00;46633.06;5007109;28;20053;-65
2023/09/22 04:08:38;;;;;;;17.20;6.53;;;;;;;-145.18;100.00;46633.06;5010417;28;20092;-65
2023/09/22 04:11:04;;;;;;;16.10;6.77;;;;;;;-145.18;100.00;46633.06;5011514;28;20109;-65
2023/09/22 04:13:29;;;;;;;14.07;6.97;;;;;;;-145.18;100.00;46631.09;5000217;28;20041;-65
2023/09/22 04:16:02;;;;;;;20.47;7.47;;;;;;;-145.18;100.00;46629.13;5012459;28;20444;-65
2023/09/22 04:18:30;;;;;;;14.13;6.83;;;;;;;-145.18;100.00;46629.13;5004867;28;20121;-65
2023/09/22 04:20:57;;;;;;;12.90;6.23;;;;;;;-145.18;100.00;46631.09;5004827;28;20050;-65
2023/09/22 04:23:25;;;;;;;14.13;6.47;;;;;;;-145.18;100.00;46627.19;5002984;28;20350;-65
2023/09/22 04:25:54;;;;;;;13.50;6.67;;;;;;;-145.18;100.00;46629.13;5012034;28;20057;-65
2023/09/22 04:28:23;;;;;;;15.87;6.47;;;;;;;-145.18;100.00;46631.09;5011847;28;20075;-66
2023/09/22 04:30:49;;;;;;;15.83;6.40;;;;;;;-145.18;100.00;46627.19;5007826;28;20037;-66
2023/09/22 04:33:15;;;;;;;11.70;6.67;;;;;;;-145.18;100.00;46633.06;5008192;28;20083;-65
2023/09/22 04:35:41;;;;;;;14.97;6.70;;;;;;;-145.18;100.00;46631.09;5005504;28;20038;-66
2023/09/22 04:38:06;;;;;;;13.93;6.90;;;;;;;-145.18;100.00;46629.13;5011704;28;20528;-65
2023/09/22 04:40:36;;;;;;;20.47;6.67;;;;;;;-145.18;100.00;46629.13;5004254;28;20048;-65
2023/09/22 04:43:07;;;;;;;14.17;6.53;;;;;;;-145.18;100.00;46629.13;5011521;28;20083;-65
2023/09/22 04:45:40;;;;;;;13.80;7.17;;;;;;;-145.18;100.00;46629.13;5011965;28;20025;-65
2023/09/22 04:48:05;;;;;;;11.67;5.77;;;;;;;-145.18;100.00;46633.06;4997094;28;20037;-65
2023/09/22 04:50:32;;;;;;;16.23;6.37;;;;;;;-145.18;100.00;46629.13;5006012;28;20393;-65
2023/09/22 04:52:58;;;;;;;17.27;6.20;;;;;;;-145.18;100.00;46629.13;5011665;28;20385;-65
2023/09/22 04:55:23;;;;;;;17.23;6.03;;;;;;;-145.18;100.00;46631.09;5007731;28;20026;-65
2023/09/22 04:57:49;;;;;;;12.77;6.17;;;;;;;-145.18;100.00;46623.28;5010746;28;20625;-65
2023/09/22 05:00:21;;;;;;;13.60;6.23;;;;;;;-145.18;100.00;46631.09;5010828;28;20037;-65
2023/09/22 05:02:46;;;;;;;15.03;6.47;;;;;;;-145.18;100.00;46627.19;5006108;28;20383;-65
2023/09/22 05:05:12;;;;;;;16.83;6.63;;;;;;;-145.18;100.00;46625.22;5007887;28;20030;-65
2023/09/22 05:07:38;;;;;;;13.30;6.13;;;;;;;-145.18;100.00;46631.09;5008306;28;20163;-65
2023/09/22 05:10:05;;;;;;;13.90;6.40;;;;;;;-145.18;100.00;46627.19;5012147;28;20030;-66
2023/09/22 05:12:31;;;;;;;15.70;6.87;;;;;;;-145.18;100.00;46631.09;5008205;28;20033;-65
2023/09/22 05:14:58;;;;;;;14.07;6.93;;;;;;;-145.18;100.00;46660.41;5010399;28;21455;-65
2023/09/22 05:17:24;;;;;;;13.87;6.70;;;;;;;-145.18;100.00;46627.19;5011545;28;20026;-65
2023/09/22 05:19:50;;;;;;;17.90;7.27;;;;;;;-145.18;100.00;46627.19;5010706;28;20129;-65
2023/09/22 05:22:18;;;;;;;17.20;7.13;;;;;;;-145.18;100.00;46627.19;5011476;28;20056;-65
2023/09/22 05:24:44;;;;;;;12.50;6.80;;;;;;;-145.18;100.00;46625.22;5011367;28;20057;-65
2023/09/22 05:27:10;;;;;;;11.17;6.03;;;;;;;-145.18;100.00;46627.19;5014112;28;20742;-65
2023/09/22 05:29:35;;;;;;;13.10;5.90;;;;;;;-145.18;100.00;46625.22;5015670;28;20033;-65
2023/09/22 05:32:01;;;;;;;12.80;6.47;;;;;;;-145.18;100.00;46623.28;5015723;28;20059;-65
2023/09/22 05:34:27;;;;;;;12.33;6.37;;;;;;;-145.18;100.00;46623.28;5014286;28;20029;-65
2023/09/22 05:36:53;;;;;;;12.10;5.77;;;;;;;-145.18;100.00;46621.31;5015500;28;20034;-65
2023/09/22 05:39:18;;;;;;;12.50;5.80;;;;;;;-145.18;100.00;46629.13;5014052;28;20053;-65
2023/09/22 05:41:47;;;;;;;17.03;6.10;;;;;;;-145.18;100.00;46631.09;5014042;28;20417;-65
2023/09/22 05:44:13;;;;;;;10.07;5.93;;;;;;;-145.18;100.00;46629.13;5014829;28;20014;-65
2023/09/22 05:46:38;;;;;;;10.40;6.07;;;;;;;-145.18;100.00;46660.41;5012095;28;20084;-65
2023/09/22 05:49:06;;;;;;;11.67;5.80;;;;;;;-145.18;100.00;46621.31;5014378;28;20075;-65
2023/09/22 05:51:32;;;;;;;11.40;4.80;;;;;;;-145.18;100.00;46621.31;5009696;28;20080;-65
2023/09/22 05:53:57;;;;;;;10.20;4.60;;;;;;;-145.18;100.00;46623.28;5008159;28;20033;-65
2023/09/22 05:56:23;;;;;;;12.00;6.23;;;;;;;-145.18;100.00;46625.22;5013300;28;20057;-65
2023/09/22 05:58:48;;;;;;;10.43;5.30;;;;;;;-145.18;100.00;46627.19;5012402;28;20030;-65
2023/09/22 06:01:14;;;;;;;9.60;4.83;;;;;;;-145.18;100.00;46627.19;5005398;28;20482;-65
2023/09/22 06:03:41;;;;;;;14.13;5.20;;;;;;;-145.18;100.00;46621.31;5011806;28;20026;-65
2023/09/22 06:06:14;;;;;;;8.70;4.80;;;;;;;-145.18;100.00;46629.13;5013762;28;20025;-65
2023/09/22 06:08:41;;;;;;;11.10;6.00;;;;;;;-145.18;100.00;46629.13;5010656;28;20079;-65
2023/09/22 06:11:08;;;;;;;7.63;4.30;;;;;;;-145.18;100.00;46627.19;5005331;28;20049;-65
2023/09/22 06:13:34;;;;;;;10.43;4.77;;;;;;;-145.18;100.00;46629.13;5010149;28;20029;-65
2023/09/22 06:16:01;;;;;;;7.97;4.33;;;;;;;-145.18;100.00;46631.09;5004212;28;20112;-65
2023/09/22 06:18:26;;;;;;;9.73;4.37;;;;;;;-145.18;100.00;46633.06;5006815;28;20034;-65
2023/09/22 06:21:00;;;;;;;10.10;4.10;;;;;;;-145.18;100.00;46627.19;5009000;28;20784;-65
2023/09/22 06:23:27;;;;;;;11.90;4.20;;;;;;;-145.18;100.00;46629.13;5003378;28;20026;-65
2023/09/22 06:25:57;;;;;;;7.07;3.67;;;;;;;-145.18;100.00;46631.09;5007125;28;20045;-65
2023/09/22 06:28:22;;;;;;;11.40;3.77;;;;;;;-145.18;100.00;46625.22;5010654;28;20393;-65
2023/09/22 06:30:49;;;;;;;6.87;3.27;;;;;;;-145.18;100.00;46631.09;5004044;28;20022;-65
2023/09/22 06:33:18;;;;;;;6.17;3.43;;;;;;;-145.18;100.00;46633.06;5004356;28;20030;-65
2023/09/22 06:35:45;;;;;;;9.20;3.00;;;;;;;-145.18;100.00;46631.09;5006965;28;20481;-65
2023/09/22 06:38:11;;;;;;;6.13;3.60;;;;;;;-145.18;100.00;46638.91;5003184;28;20030;-65
2023/09/22 06:40:37;;;;;;;6.83;3.13;;;;;;;-145.18;100.00;46633.06;5010453;28;20022;-65
2023/09/22 06:43:08;;;;;;;8.00;3.40;;;;;;;-145.18;100.00;46633.06;5000133;28;20061;-66
2023/09/22 06:45:36;;;;;;;7.47;3.33;;;;;;;-145.18;100.00;46638.91;5007683;28;20501;-65
2023/09/22 06:48:05;;;;;;;5.83;2.63;;;;;;;-145.18;100.00;46638.91;5006855;28;20026;-65
2023/09/22 06:50:37;;;;;;;6.77;2.77;;;;;;;-145.18;100.00;46640.88;5006245;28;20064;-65
2023/09/22 06:53:03;;;;;;;6.60;2.87;;;;;;;-145.18;100.00;46640.88;4975985;28;20061;-65
2023/09/22 06:55:30;;;;;;;4.90;2.43;;;;;;;-145.18;100.00;46636.94;5009314;28;20022;-66
2023/09/22 06:57:58;;;;;;;4.77;2.70;;;;;;;-145.18;100.00;46636.94;5012989;28;20058;-66
2023/09/22 07:00:28;;;;;;;4.83;2.70;;;;;;;-145.18;100.00;46640.88;5012146;28;20018;-66
2023/09/22 07:02:55;;;;;;;5.53;2.37;;;;;;;-145.18;100.00;46646.72;5006848;28;20026;-66
2023/09/22 07:05:20;;;;;;;5.60;2.67;;;;;;;-145.18;100.00;46640.88;5011945;28;20524;-66
2023/09/22 07:07:47;;;;;;;4.67;2.13;;;;;;;-145.18;100.00;46646.72;5012507;28;20030;-66
2023/09/22 07:10:12;;;;;;;5.30;2.67;;;;;;;-145.18;100.00;46638.91;5003944;28;20045;-66
2023/09/22 07:12:38;;;;;;;6.37;2.57;;;;;;;-145.18;100.00;46646.72;5013058;28;20030;-67
2023/09/22 07:15:05;;;;;;;7.97;2.77;;;;;;;-145.18;100.00;46642.81;5011534;28;20401;-67
2023/09/22 07:17:31;;;;;;;3.93;2.30;;;;;;;-145.18;100.00;46644.78;5002721;28;20098;-67
2023/09/22 07:19:57;;;;;;;6.90;2.60;;;;;;;-145.18;100.00;46642.81;5009819;28;20034;-67
2023/09/22 07:22:23;;;;;;;9.13;3.07;;;;;;;-145.18;100.00;46646.72;5010170;28;20134;-67
2023/09/22 07:24:50;;;;;;;3.07;2.30;;;;;;;-145.18;100.00;46646.72;5006780;28;20105;-67
2023/09/22 07:27:16;;;;;;;5.60;2.50;;;;;;;-145.18;100.00;46648.69;5012548;28;20053;-67
2023/09/22 07:29:42;;;;;;;5.63;2.73;;;;;;;-145.18;100.00;46648.69;5003859;28;20366;-67
2023/09/22 07:32:08;;;;;;;4.53;2.53;;;;;;;-145.18;100.00;46654.53;5010959;28;20081;-67
2023/09/22 07:34:33;;;;;;;4.30;2.70;;;;;;;-145.18;100.00;46654.53;5004630;28;20508;-67
2023/09/22 07:36:59;;;;;;;5.57;2.90;;;;;;;-145.18;100.00;46652.59;5006270;28;20061;-67
2023/09/22 07:39:24;;;;;;;5.60;3.10;;;;;;;-145.18;100.00;46656.50;5010252;28;20032;-67
2023/09/22 07:41:50;;;;;;;3.63;2.83;;;;;;;-145.18;100.00;46666.25;4991391;28;20042;-67
2023/09/22 07:44:18;;;;;;;5.93;2.47;;;;;;;-145.18;100.00;46654.53;5008779;28;20109;-67
2023/09/22 07:46:44;;;;;;;8.77;3.00;;;;;;;-145.18;100.00;46662.34;5009361;28;20496;-67
2023/09/22 07:49:10;;;;;;;5.30;3.00;;;;;;;-145.18;100.00;46660.41;5010822;28;20037;-67
2023/09/22 07:51:36;;;;;;;6.87;3.67;;;;;;;-145.18;100.00;46664.31;5002092;28;20107;-67
2023/09/22 07:54:02;;;;;;;5.33;3.37;;;;;;;-145.18;100.00;46660.41;5007620;28;20062;-67
2023/09/22 07:56:30;;;;;;;7.70;3.80;;;;;;;-145.18;100.00;46668.22;5012215;28;20189;-67
2023/09/22 07:58:57;;;;;;;4.70;3.40;;;;;;;-145.18;100.00;46666.25;5001374;28;20513;-67
2023/09/22 08:01:24;;;;;;;3.50;2.90;;;;;;;-145.18;100.00;46670.16;5005754;28;20640;-67
2023/09/22 08:03:50;;;;;;;3.80;3.00;;;;;;;-145.18;100.00;46670.16;5007291;28;20173;-67
2023/09/22 08:06:16;;;;;;;4.40;3.20;;;;;;;-145.18;100.00;46670.16;5007083;28;20120;-65
2023/09/22 08:08:41;;;;;;;5.00;3.60;;;;;;;-145.18;100.00;46666.25;5009317;28;20068;-65
2023/09/22 08:11:07;;;;;;;4.37;3.57;;;;;;;-145.18;100.00;46664.31;5009207;28;20038;-65
2023/09/22 08:13:33;;;;;;;4.10;3.30;;;;;;;-145.18;100.00;46670.16;5009400;28;20038;-65
2023/09/22 08:15:59;;;;;;;7.97;3.93;;;;;;;-145.18;100.00;46672.13;5001686;28;20018;-64
2023/09/22 08:18:26;;;;;;;3.70;3.23;;;;;;;-145.18;100.00;46668.22;5005649;28;20083;-64
2023/09/22 08:20:51;;;;;;;5.00;3.20;;;;;;;-145.18;100.00;46676.03;5007382;28;20046;-65
2023/09/22 08:23:17;;;;;;;5.67;3.27;;;;;;;-145.18;100.00;46674.06;5009939;28;20445;-65
2023/09/22 08:25:46;;;;;;;3.60;2.57;;;;;;;-145.18;100.00;46679.94;5009507;28;20576;-65
2023/09/22 08:28:15;;;;;;;5.07;3.27;;;;;;;-145.18;100.00;46679.94;5004899;28;20173;-64
2023/09/22 08:30:40;;;;;;;4.63;3.43;;;;;;;-145.18;100.00;46676.03;5009584;28;20026;-65
2023/09/22 08:33:07;;;;;;;6.20;2.70;;;;;;;-145.18;100.00;46681.88;5011698;28;20033;-65
2023/09/22 08:35:34;;;;;;;5.83;3.40;;;;;;;-145.18;100.00;46681.88;5008431;28;20065;-64
2023/09/22 08:38:00;;;;;;;3.60;3.17;;;;;;;-145.18;100.00;46679.94;5005715;28;20030;-64
2023/09/22 08:40:26;;;;;;;4.13;2.60;;;;;;;-145.18;100.00;46677.97;5011030;28;20038;-64
2023/09/22 08:42:55;;;;;;;5.07;2.97;;;;;;;-145.18;100.00;46677.97;5005562;28;20029;-65
2023/09/22 08:45:21;;;;;;;5.97;2.67;;;;;;;-145.18;100.00;46683.84;5008469;28;20041;-64
2023/09/22 08:47:49;;;;;;;5.43;3.10;;;;;;;-145.18;100.00;46679.94;5002765;28;20108;-64
2023/09/22 08:50:19;;;;;;;5.50;2.80;;;;;;;-145.18;100.00;46681.88;5003476;28;20045;-64
2023/09/22 08:52:49;;;;;;;7.10;3.00;;;;;;;-145.18;100.00;46683.84;5006306;28;20030;-65
2023/09/22 08:55:15;;;;;;;4.53;3.00;;;;;;;-145.18;100.00;46685.78;5010511;28;20481;-65
2023/09/22 08:57:44;;;;;;;4.97;2.60;;;;;;;-145.18;100.00;46687.75;4999022;28;20221;-64
2023/09/22 09:00:26;;;;;;;3.80;2.53;;;;;;;-145.18;100.00;46681.88;4998176;28;20474;-66
2023/09/22 09:02:54;;;;;;;3.23;2.60;;;;;;;-145.18;100.00;46687.75;4999895;28;20448;-64
2023/09/22 09:05:28;;;;;;;6.37;2.80;;;;;;;-145.18;100.00;46683.84;5005612;28;20034;-65
2023/09/22 09:07:54;;;;;;;8.50;2.70;;;;;;;-145.18;100.00;46691.66;4999968;28;20080;-64
2023/09/22 09:10:27;;;;;;;3.73;2.90;;;;;;;-145.18;100.00;46691.66;5010871;28;20029;-64
2023/09/22 09:12:54;;;;;;;2.50;2.30;;;;;;;-145.18;100.00;46689.69;5006864;28;20073;-64
2023/09/22 09:15:23;;;;;;;4.77;3.00;;;;;;;-145.18;100.00;46697.50;5004417;28;20022;-64
2023/09/22 09:18:04;;;;;;;3.43;2.80;;;;;;;-145.18;100.00;46695.56;5003452;28;20057;-64
2023/09/22 09:20:31;;;;;;;3.90;2.63;;;;;;;-145.18;100.00;46695.56;5010673;28;20037;-64
2023/09/22 09:22:56;;;;;;;3.27;2.83;;;;;;;-145.18;100.00;46697.50;5011392;28;20033;-64
2023/09/22 09:25:22;;;;;;;5.03;2.23;;;;;;;-145.18;100.00;46699.47;5002410;28;20069;-64
2023/09/22 09:27:59;;;;;;;3.23;2.17;;;;;;;-145.18;100.00;46697.50;5006716;28;20054;-64
2023/09/22 09:30:25;;;;;;;4.17;1.90;;;;;;;-145.18;100.00;46693.59;5005249;28;20044;-64
2023/09/22 09:32:50;;;;;;;2.30;1.73;;;;;;;-145.18;100.00;46687.75;5001743;28;20042;-64
2023/09/22 09:35:29;;;;;;;3.40;1.93;;;;;;;-145.18;100.00;46683.84;4997671;28;20038;-64
2023/09/22 09:38:02;;;;;;;3.30;1.93;;;;;;;-145.18;100.00;46674.06;5006092;28;20026;-64
2023/09/22 09:40:27;;;;;;;3.20;1.67;;;;;;;-145.18;100.00;46660.41;4994212;28;20046;-64
2023/09/22 09:42:54;;;;;;;2.80;1.60;;;;;;;-145.18;100.00;46601.78;5002007;28;20489;-64
2023/09/22 09:45:23;;;;;;;2.40;1.73;;;;;;;-145.18;100.00;46574.44;5001277;28;20038;-64
2023/09/22 09:47:54;;;;;;;3.17;2.00;;;;;;;-145.18;100.00;46570.53;5005864;28;20057;-64
2023/09/22 09:50:21;;;;;;;2.50;1.73;;;;;;;-145.18;100.00;46568.59;4999471;28;20058;-64
2023/09/22 09:52:56;;;;;;;3.40;1.70;;;;;;;-145.18;100.00;46564.69;5010597;28;20026;-64
2023/09/22 09:55:24;;;;;;;5.10;1.45;;;;;;;-145.18;100.00;46574.44;5006629;28;20036;-64
2023/09/22 09:57:53;;;;;;;4.50;1.20;;;;;;;-145.18;100.00;46570.53;5008184;28;20055;-64
2023/09/22 10:00:19;;;;;;;2.80;1.47;;;;;;;-145.18;100.00;46574.44;5006522;28;20026;-64
2023/09/22 10:02:46;;;;;;;5.80;1.20;;;;;;;-145.18;100.00;46566.63;5002726;28;20022;-64
2023/09/22 10:05:16;;;;;;;2.10;1.20;;;;;;;-145.18;100.00;46566.63;5006897;28;20041;-63
2023/09/22 10:07:46;;;;;;;3.20;1.27;;;;;;;-145.18;100.00;46568.59;5002389;28;20085;-63
2023/09/22 10:10:13;;;;;;;3.83;1.37;;;;;;;-145.18;100.00;46582.25;5009421;28;20026;-63
2023/09/22 10:12:40;;;;;;;1.90;1.10;;;;;;;-145.18;100.00;46586.16;5008349;28;20018;-63
2023/09/22 10:15:07;;;;;;;3.33;1.47;;;;;;;-145.18;100.00;46590.06;5011733;28;20060;-63
2023/09/22 10:17:33;;;;;;;4.80;1.50;;;;;;;-145.18;100.00;46590.06;5006144;28;20026;-63
2023/09/22 10:20:10;;;;;;;1.80;1.00;;;;;;;-145.18;100.00;46601.78;5007406;28;20029;-63
2023/09/22 10:22:39;;;;;;;1.67;1.10;;;;;;;-145.18;100.00;46590.06;5011863;28;20036;-64
2023/09/22 10:25:13;;;;;;;2.10;1.10;;;;;;;-145.18;100.00;46597.88;5012265;28;20149;-68
2023/09/22 10:27:56;;;;;;;2.07;1.03;;;;;;;-145.18;100.00;46593.97;5013807;28;20053;-68
2023/09/22 10:30:23;;;;;;;2.57;1.03;;;;;;;-145.18;100.00;46590.06;5010997;28;20038;-68
2023/09/22 10:32:48;;;;;;;5.77;1.40;;;;;;;-145.18;100.00;46603.75;5012508;28;20026;-68
2023/09/22 10:35:40;;;;;;;1.00;0.80;;;;;;;-145.18;100.00;46601.78;5011674;28;20508;-67
2023/09/22 10:38:06;;;;;;;1.17;0.80;;;;;;;-145.18;100.00;46597.88;5003362;28;20038;-68
2023/09/22 10:40:31;;;;;;;4.20;0.87;;;;;;;-145.18;100.00;46597.88;5003775;28;20398;-67
2023/09/22 10:43:02;;;;;;;4.07;1.00;;;;;;;-145.18;100.00;46593.97;5012455;28;20056;-67
2023/09/22 10:45:29;;;;;;;1.70;0.80;;;;;;;-145.18;100.00;46625.22;5014023;28;20029;-67
2023/09/22 10:47:57;;;;;;;3.33;0.80;;;;;;;-145.18;100.00;46605.69;5006900;28;20033;-67
2023/09/22 10:50:26;;;;;;;1.23;0.73;;;;;;;-145.18;100.00;46597.88;5011497;28;20490;-67
2023/09/22 10:53:05;;;;;;;2.13;0.67;;;;;;;-145.18;100.00;46613.50;5002551;28;20033;-68
2023/09/22 10:55:36;;;;;;;2.33;0.90;;;;;;;-145.18;100.00;46621.31;5013071;28;20034;-67
2023/09/22 10:58:06;;;;;;;3.50;1.10;;;;;;;-145.18;100.00;46646.72;5005261;28;20037;-67
2023/09/22 11:00:36;;;;;;;4.33;1.10;;;;;;;-145.18;100.00;46609.59;5011808;28;20056;-67